createdAt,value
2022-11-15T00:01:57.538Z,6.98
2022-11-15T00:07:48.099Z,7.08
2022-11-15T00:13:07.414Z,6.99
2022-11-15T00:18:29.822Z,6.95
2022-11-15T00:23:53.508Z,6.99
2022-11-15T00:29:15.285Z,6.90
2022-11-15T00:34:36.975Z,6.96
2022-11-15T00:40:00.652Z,6.92
2022-11-15T00:45:22.407Z,6.87
2022-11-15T00:50:44.254Z,6.85
2022-11-15T00:56:07.862Z,6.93
2022-11-15T01:01:30.241Z,6.84
2022-11-15T01:06:52.352Z,6.91
2022-11-15T01:12:15.983Z,6.86
2022-11-15T01:17:37.616Z,6.88
2022-11-15T01:22:59.702Z,6.95
2022-11-15T01:28:23.210Z,6.94
2022-11-15T01:33:45.278Z,6.89
2022-11-15T01:39:07.055Z,6.87
2022-11-15T01:44:42.610Z,6.82
2022-11-15T01:50:10.603Z,6.87
2022-11-15T01:55:32.959Z,6.94
2022-11-15T02:00:56.309Z,6.87
2022-11-15T02:06:18.487Z,6.82
2022-11-15T02:11:40.314Z,6.81
2022-11-15T02:17:15.575Z,6.84
2022-11-15T02:22:48.490Z,6.78
2022-11-15T02:28:46.445Z,6.90
2022-11-15T02:34:18.813Z,6.85
2022-11-15T02:39:44.239Z,6.94
2022-11-15T02:45:12.466Z,6.83
2022-11-15T02:50:36.480Z,6.82
2022-11-15T02:55:59.425Z,6.85
2022-11-15T03:01:36.511Z,6.99
2022-11-15T03:07:07.880Z,6.95
2022-11-15T03:12:36.973Z,6.87
2022-11-15T03:18:02.980Z,6.87
2022-11-15T03:23:28.224Z,6.89
2022-11-15T03:28:54.644Z,6.85
2022-11-15T03:34:23.825Z,6.96
2022-11-15T03:39:47.254Z,6.82
2022-11-15T03:45:17.305Z,6.81
2022-11-15T03:50:39.621Z,6.79
2022-11-15T03:56:02.888Z,6.77
2022-11-15T04:01:24.917Z,6.78
2022-11-15T04:06:47.368Z,6.79
2022-11-15T04:12:10.634Z,6.79
2022-11-15T04:17:32.759Z,6.85
2022-11-15T04:23:12.989Z,6.79
2022-11-15T04:28:36.341Z,6.89
2022-11-15T04:33:58.627Z,6.89
2022-11-15T04:39:20.711Z,6.92
2022-11-15T04:44:44.049Z,6.86
2022-11-15T04:50:07.309Z,6.89
2022-11-15T04:55:29.239Z,6.91
2022-11-15T05:00:52.504Z,6.85
2022-11-15T05:06:14.291Z,6.81
2022-11-15T05:11:36.727Z,6.78
2022-11-15T05:17:00.095Z,6.93
2022-11-15T05:22:22.206Z,6.80
2022-11-15T05:27:44.162Z,6.92
2022-11-15T05:33:07.397Z,6.88
2022-11-15T05:38:30.374Z,6.92
2022-11-15T05:43:53.678Z,6.97
2022-11-15T05:49:20.666Z,6.90
2022-11-15T05:54:42.793Z,6.91
2022-11-15T06:00:09.156Z,6.80
2022-11-15T06:05:32.455Z,6.90
2022-11-15T06:10:54.056Z,6.97
2022-11-15T06:16:15.607Z,6.95
2022-11-15T06:21:38.917Z,7.08
2022-11-15T06:27:01.183Z,7.20
2022-11-15T06:32:22.844Z,7.26
2022-11-15T06:37:46.287Z,7.25
2022-11-15T06:43:08.573Z,7.18
2022-11-15T06:48:31.673Z,7.27
2022-11-15T06:53:55.027Z,7.31
2022-11-15T06:59:17.293Z,7.48
2022-11-15T07:04:39.099Z,7.49
2022-11-15T07:10:02.781Z,7.50
2022-11-15T07:15:26.815Z,7.62
2022-11-15T07:20:49.335Z,7.68
2022-11-15T07:26:12.685Z,7.78
2022-11-15T07:31:34.781Z,7.83
2022-11-15T07:36:57.031Z,7.76
2022-11-15T07:42:37.938Z,7.91
2022-11-15T07:48:00.236Z,7.94
2022-11-15T07:53:22.129Z,8.10
2022-11-15T07:58:47.470Z,8.11
2022-11-15T08:04:09.343Z,8.25
2022-11-15T08:09:31.294Z,8.12
2022-11-15T08:14:54.707Z,8.22
2022-11-15T08:20:17.110Z,8.36
2022-11-15T08:25:39.670Z,8.59
2022-11-15T08:31:03.427Z,8.45
2022-11-15T08:36:25.131Z,8.64
2022-11-15T08:41:46.888Z,8.67
2022-11-15T08:47:13.176Z,8.77
2022-11-15T08:52:35.747Z,8.83
2022-11-15T08:57:59.517Z,8.78
2022-11-15T09:03:23.201Z,8.94
2022-11-15T09:08:47.782Z,9.20
2022-11-15T09:14:13.336Z,9.24
2022-11-15T09:19:36.640Z,9.30
2022-11-15T09:24:58.586Z,9.21
2022-11-15T09:30:20.571Z,9.16
2022-11-15T09:35:43.593Z,9.28
2022-11-15T09:41:28.018Z,9.43
2022-11-15T09:47:01.578Z,9.33
2022-11-15T09:52:45.231Z,9.54
2022-11-15T09:57:55.398Z,9.54
2022-11-15T10:03:15.064Z,9.71
2022-11-15T10:08:57.147Z,9.87
2022-11-15T10:14:04.024Z,9.85
2022-11-15T10:19:20.544Z,9.82
2022-11-15T10:24:30.277Z,10.12
2022-11-15T10:29:33.705Z,9.86
2022-11-15T10:34:38.868Z,9.93
2022-11-15T10:39:43.643Z,10.10
2022-11-15T10:44:47.974Z,10.19
2022-11-15T10:50:02.988Z,10.13
2022-11-15T10:55:26.431Z,9.92
2022-11-15T11:00:33.377Z,10.06
2022-11-15T11:05:42.113Z,10.01
2022-11-15T11:11:00.244Z,9.90
2022-11-15T11:16:28.684Z,10.01
2022-11-15T11:21:45.976Z,10.13
2022-11-15T11:27:02.342Z,10.16
2022-11-15T11:32:18.171Z,10.12
2022-11-15T11:37:30.837Z,10.10
2022-11-15T11:42:46.274Z,10.10
2022-11-15T11:47:53.525Z,10.25
2022-11-15T11:53:03.881Z,10.26
2022-11-15T11:58:16.459Z,10.25
2022-11-15T12:03:30.295Z,10.31
2022-11-15T12:08:45.748Z,10.21
2022-11-15T12:13:55.487Z,10.25
2022-11-15T12:19:03.561Z,10.30
2022-11-15T12:24:13.911Z,10.38
2022-11-15T12:29:23.983Z,10.55
2022-11-15T12:34:42.484Z,10.55
2022-11-15T12:40:25.792Z,10.40
2022-11-15T12:45:32.927Z,10.43
2022-11-15T12:50:55.764Z,10.31
2022-11-15T12:56:34.566Z,10.36
2022-11-15T13:02:02.477Z,10.40
2022-11-15T13:07:08.720Z,10.26
2022-11-15T13:12:14.749Z,10.23
2022-11-15T13:17:35.388Z,10.21
2022-11-15T13:23:00.275Z,10.09
2022-11-15T13:28:08.114Z,10.00
2022-11-15T13:33:18.599Z,10.14
2022-11-15T13:38:29.828Z,10.10
2022-11-15T13:43:38.328Z,10.03
2022-11-15T13:48:45.288Z,9.92
2022-11-15T13:53:54.704Z,9.81
2022-11-15T14:37:18.786Z,9.91
2022-11-15T14:42:23.182Z,9.92
2022-11-15T14:47:26.562Z,9.87
2022-11-15T14:52:35.263Z,9.89
2022-11-15T14:57:38.744Z,9.87
2022-11-15T15:02:43.137Z,9.78
2022-11-15T15:07:48.869Z,9.84
2022-11-15T15:12:52.457Z,9.80
2022-11-15T15:17:55.845Z,9.78
2022-11-15T15:23:00.674Z,9.77
2022-11-15T15:28:04.689Z,9.77
2022-11-15T15:33:08.433Z,9.78
2022-11-15T15:38:14.142Z,9.76
2022-11-15T15:43:17.525Z,9.73
2022-11-15T15:48:20.988Z,9.71
2022-11-15T15:53:25.763Z,9.69
2022-11-15T15:58:29.359Z,9.69
2022-11-15T16:03:32.957Z,9.64
2022-11-15T16:09:00.542Z,9.74
2022-11-15T16:14:01.937Z,9.67
2022-11-15T16:19:05.669Z,9.62
2022-11-15T16:24:10.374Z,9.63
2022-11-15T16:29:13.738Z,9.55
2022-11-15T16:34:17.114Z,9.55
2022-11-15T16:39:23.593Z,9.58
2022-11-15T16:44:27.057Z,9.57
2022-11-15T16:49:30.424Z,9.57
2022-11-15T16:54:35.252Z,9.58
2022-11-15T16:59:38.689Z,9.60
2022-11-15T17:04:42.205Z,9.55
2022-11-15T17:09:46.987Z,9.58
2022-11-15T17:14:50.394Z,9.55
2022-11-15T17:19:54.214Z,9.62
2022-11-15T17:24:59.046Z,9.58
2022-11-15T17:30:02.463Z,9.56
2022-11-15T17:35:13.762Z,9.57
2022-11-15T17:40:20.225Z,9.59
2022-11-15T17:45:23.662Z,9.63
2022-11-15T17:50:27.081Z,9.58
2022-11-15T17:55:31.849Z,9.64
2022-11-15T18:00:37.961Z,9.59
2022-11-15T18:05:43.873Z,9.56
2022-11-15T18:10:48.618Z,9.55
2022-11-15T18:15:56.174Z,9.54
2022-11-15T18:21:04.552Z,9.51
2022-11-15T18:26:11.841Z,9.41
2022-11-15T18:31:16.533Z,9.34
2022-11-15T18:36:21.625Z,9.30
2022-11-15T18:41:28.749Z,9.26
2022-11-15T18:46:33.549Z,9.25
2022-11-15T18:51:41.663Z,9.18
2022-11-15T18:56:48.162Z,9.05
2022-11-15T19:01:52.303Z,8.93
2022-11-15T19:06:55.700Z,8.74
2022-11-15T19:12:00.519Z,8.62
2022-11-15T19:17:04.085Z,8.45
2022-11-15T19:22:07.493Z,8.32
2022-11-15T19:27:12.232Z,8.12
2022-11-15T19:32:15.629Z,7.98
2022-11-15T19:37:19.033Z,7.91
2022-11-15T19:42:23.801Z,7.88
2022-11-15T19:47:28.561Z,7.66
2022-11-15T19:52:31.981Z,7.67
2022-11-15T19:57:36.788Z,7.68
2022-11-15T20:02:40.138Z,7.73
2022-11-15T20:07:43.573Z,7.68
2022-11-15T20:12:48.356Z,7.59
2022-11-15T20:17:52.808Z,7.57
2022-11-15T20:22:58.924Z,7.48
2022-11-15T20:28:06.096Z,7.37
2022-11-15T20:33:09.451Z,7.35
2022-11-15T20:38:13.667Z,7.26
2022-11-15T20:43:20.269Z,6.97
2022-11-15T20:48:24.039Z,6.76
2022-11-15T20:53:30.645Z,6.73
2022-11-15T20:58:37.175Z,6.83
2022-11-15T21:03:40.525Z,6.50
2022-11-15T21:09:01.544Z,6.46
2022-11-15T21:14:09.452Z,6.39
2022-11-15T21:19:13.247Z,6.35
2022-11-15T21:24:16.714Z,6.23
2022-11-15T21:29:21.756Z,6.16
2022-11-15T21:34:25.161Z,6.09
2022-11-15T21:39:28.566Z,6.14
2022-11-15T21:44:33.365Z,6.16
2022-11-15T21:49:36.725Z,6.10
2022-11-15T21:54:41.189Z,5.99
2022-11-15T21:59:59.787Z,5.90
2022-11-15T22:05:03.194Z,5.88
2022-11-15T22:10:07.682Z,5.97
2022-11-15T22:15:12.671Z,6.14
2022-11-15T22:20:43.016Z,6.08
2022-11-15T22:25:39.856Z,6.13
2022-11-15T22:30:46.505Z,6.04
2022-11-15T22:35:50.066Z,6.11
2022-11-15T22:40:53.486Z,6.05
2022-11-15T22:46:01.295Z,5.98
2022-11-15T22:51:06.274Z,5.99
2022-11-15T22:56:11.897Z,5.87
2022-11-15T23:01:22.097Z,5.87
2022-11-15T23:06:25.551Z,6.05
2022-11-15T23:11:46.142Z,6.14
2022-11-15T23:16:50.951Z,5.85
2022-11-15T23:22:11.851Z,5.94
2022-11-15T23:27:20.115Z,5.95
2022-11-15T23:32:42.444Z,5.81
2022-11-15T23:37:45.804Z,5.64
2022-11-15T23:42:50.050Z,5.84
2022-11-15T23:48:01.000Z,5.83
2022-11-15T23:53:05.179Z,5.80
2022-11-15T23:58:08.854Z,5.63
